High Lake, Indiana
Current Conditions -  °F | °C
As of 4:55 AM on Sunday 26 Oct 2014 (Local Time) from KGWB Reporting Station
Clear Clear  
Wind Chill: 43°   Ceiling: Unl
Heat Index: 43°   Visibility: 10mi
Dew Point: 32°   Wind: 3mph
Humidity: 66%   Direction: 270°W
Pressure: 29.95"   Gusts: NA
Location:  41.3469°N, 85.4059°W
Report Text: KGWB 260855Z AUTO 27003KT 10SM CLR 06/00 A2995 RMK AO2
Loading
Personal Weather Stations






























Interactive Weather Map
Tropical Storm Tracking
New forecast layout! Learn more

10-Day Weather Forecast

Advertisements
Track Severe Weather on mobile